Charlottesville Albemarle Airport
KCHO : now visible

Airfield :











YOU CAN JOIN US ON...

 
LOGIN :

Register | Disclaimer

   EN    FR    IT 

 









Legend :    VFR   Marginal VFR   IFR   Intensive IFR   Very Intensive IFR
Visi :
Ceiling :
>= 8 km
>= 3000ft
5 to 8 km
1000 to 3000 ft
1500m to 5 km
500 to 1000 ft
800 to 1500m
200 to 500 ft
< 800m
< 200 ft
Symbols :   Thunderstorms  Fog  Heavy snow  Heavy precipitations  Wind > 20 kt






- Airport Elevation : 639 ft
- IATA code : CHO


KCHO - Charlottesville Albemarle

CURRENT METAR :
  • 261609Z 00000KT 10SM BKN003 OVC010 12/09 A2988 RMK AO2 T01220094

EXPIRED METARs :
  • 261600Z 00000KT 10SM OVC009 12/10 A2988 RMK AO2 CIG 004V011 T01170100
  • 261453Z 06004KT 3SM BR OVC004 11/09 A2990 RMK AO2 CIG 002V008 SLP123 T01110094 50009
  • 261410Z 02003KT 3SM BR OVC002 11/09 A2991 RMK AO2 T01060094
  • 261353Z 02003KT 1 1/2SM BR OVC002 11/09 A2991 RMK AO2 SLP127 T01060094

TAF KCHO
Valid from the 26 at 15:00 until the 27 at 12:00 UTC


261457Z 2615/2712 06004KT 3SM BR OVC004
FM261600 11004KT P6SM OVC005
FM262200 14005KT P6SM VCSH OVC010
FM270000 15006KT 4SM -SHRA BR OVC008
FM270100 23010G20KT 3SM -SHRA BR OVC008
FM270300 26009KT P6SM OVC015
FM270700 26009G16KT P6SM SCT050



MET'MAP, your aeronautical weather chart ! - Copyright ORBIFLY December 2007 - Disclaimer

ORBIFLY MET'MAP TEAM :

Programming & Development : Alexandra Zaïnal
Concept & original design : Baudouin d'Aumeries
Assistance for programming : Marc-Olivier Méhu
Technical & hardware support : Manuel Goepfert

Contact : metmap@orbifly.com




SOURCES & CREDITS :

   NOAA       Earth
Advisory